Time,TemperatureF,DewpointF,PressureIn,WindDirection,WindDirectionDegrees,WindSpeedMPH,WindSpeedGustMPH,Humidity,HourlyPrecipIn,Conditions,Clouds,dailyrainin,SoftwareType,DateUTC
2013-06-05 00:00:00,72.2,71.3,30.01,South,176,0.0,0.0,97,0.00,,,1.79,Wunderground v.1.15,2013-06-05 04:00:00,
2013-06-05 00:05:00,72.1,71.2,30.01,SSE,156,0.0,0.0,97,0.00,,,0.00,Wunderground v.1.15,2013-06-05 04:05:00,
2013-06-05 00:10:00,72.1,71.2,30.01,SSE,156,0.0,0.0,97,0.00,,,0.00,Wunderground v.1.15,2013-06-05 04:10:00,
2013-06-05 00:15:00,72.0,71.1,30.01,SSE,150,0.0,0.0,97,0.00,,,0.00,Wunderground v.1.15,2013-06-05 04:15:00,
2013-06-05 00:25:00,72.0,71.1,30.01,SSE,150,0.0,0.0,97,0.00,,,0.00,Wunderground v.1.15,2013-06-05 04:25:00,
2013-06-05 00:30:00,71.9,71.0,30.01,SSE,150,0.0,0.0,97,0.00,,,0.00,Wunderground v.1.15,2013-06-05 04:30:00,
2013-06-05 00:35:00,71.9,71.0,30.01,SSE,150,0.0,0.0,97,0.00,,,0.00,Wunderground v.1.15,2013-06-05 04:35:00,
2013-06-05 00:40:00,71.8,70.9,30.00,SSE,150,0.0,0.0,97,0.00,,,0.00,Wunderground v.1.15,2013-06-05 04:40:00,
2013-06-05 00:45:00,71.8,70.9,30.00,SSE,150,0.0,0.0,97,0.00,,,0.00,Wunderground v.1.15,2013-06-05 04:45:00,
2013-06-05 00:55:00,71.8,70.9,30.00,SSE,150,0.0,0.0,97,0.00,,,0.00,Wunderground v.1.15,2013-06-05 04:55:00,
2013-06-05 01:00:00,71.8,70.9,30.00,SSE,150,0.0,0.0,97,0.00,,,0.00,Wunderground v.1.15,2013-06-05 05:00:00,
2013-06-05 01:10:00,71.9,71.3,30.00,SSE,150,0.0,0.0,98,0.00,,,0.00,Wunderground v.1.15,2013-06-05 05:10:00,
2013-06-05 01:20:00,71.9,71.3,29.99,SSE,150,0.0,0.0,98,0.00,,,0.00,Wunderground v.1.15,2013-06-05 05:20:00,
2013-06-05 01:25:00,71.9,71.3,29.99,SSE,150,0.0,0.0,98,0.00,,,0.00,Wunderground v.1.15,2013-06-05 05:25:00,
2013-06-05 01:35:00,72.0,71.4,29.99,SSE,150,0.0,0.0,98,0.00,,,0.00,Wunderground v.1.15,2013-06-05 05:35:00,
2013-06-05 01:40:00,72.1,71.5,29.99,SSE,150,0.0,0.0,98,0.00,,,0.00,Wunderground v.1.15,2013-06-05 05:40:00,
2013-06-05 01:45:00,72.1,71.5,30.00,SSE,150,0.0,0.0,98,0.00,,,0.00,Wunderground v.1.15,2013-06-05 05:45:00,
2013-06-05 01:55:00,72.2,71.6,29.99,SSE,150,0.0,0.0,98,0.00,,,0.00,Wunderground v.1.15,2013-06-05 05:55:00,
2013-06-05 02:00:00,72.2,71.6,29.99,SSE,150,0.0,0.0,98,0.00,,,0.00,Wunderground v.1.15,2013-06-05 06:00:00,
2013-06-05 02:10:00,72.1,71.5,29.99,SSE,150,0.0,0.0,98,0.00,,,0.00,Wunderground v.1.15,2013-06-05 06:10:00,
2013-06-05 02:20:00,72.0,71.4,29.98,SSE,150,0.0,0.0,98,0.00,,,0.00,Wunderground v.1.15,2013-06-05 06:20:00,
2013-06-05 02:30:00,72.0,71.4,29.98,SSE,150,0.0,0.0,98,0.00,,,0.00,Wunderground v.1.15,2013-06-05 06:30:00,
2013-06-05 02:35:00,72.0,71.4,29.98,SSE,150,0.0,0.0,98,0.00,,,0.00,Wunderground v.1.15,2013-06-05 06:35:00,
2013-06-05 02:40:00,72.0,71.4,29.98,SSE,150,0.0,0.0,98,0.00,,,0.00,Wunderground v.1.15,2013-06-05 06:40:00,
2013-06-05 02:45:00,71.9,71.3,29.97,SSE,150,0.0,0.0,98,0.00,,,0.00,Wunderground v.1.15,2013-06-05 06:45:00,
2013-06-05 02:55:00,71.9,71.3,29.97,SSE,150,0.0,0.0,98,0.00,,,0.00,Wunderground v.1.15,2013-06-05 06:55:00,
2013-06-05 03:05:00,71.7,71.1,29.96,SSE,150,0.0,0.0,98,0.00,,,0.00,Wunderground v.1.15,2013-06-05 07:05:00,
2013-06-05 03:10:00,71.7,71.1,29.96,SSE,150,0.0,0.0,98,0.00,,,0.00,Wunderground v.1.15,2013-06-05 07:10:00,
2013-06-05 03:20:00,71.6,71.0,29.96,SSE,150,0.0,0.0,98,0.00,,,0.00,Wunderground v.1.15,2013-06-05 07:20:00,
2013-06-05 03:30:00,71.6,71.0,29.95,SSE,150,0.0,0.0,98,0.00,,,0.00,Wunderground v.1.15,2013-06-05 07:30:00,
2013-06-05 03:35:00,71.5,70.9,29.95,SSE,150,0.0,0.0,98,0.00,,,0.00,Wunderground v.1.15,2013-06-05 07:35:00,
2013-06-05 03:45:00,71.2,70.6,29.95,SSE,150,0.0,0.0,98,0.00,,,0.00,Wunderground v.1.15,2013-06-05 07:45:00,
2013-06-05 03:50:00,71.1,70.5,29.95,SSE,150,0.0,0.0,98,0.00,,,0.00,Wunderground v.1.15,2013-06-05 07:50:00,
2013-06-05 03:55:00,71.1,70.5,29.95,SSE,150,0.0,0.0,98,0.00,,,0.00,Wunderground v.1.15,2013-06-05 07:55:00,
2013-06-05 04:05:00,71.1,70.5,29.95,SSE,150,0.0,0.0,98,0.00,,,0.00,Wunderground v.1.15,2013-06-05 08:05:00,
2013-06-05 04:10:00,71.1,70.5,29.95,SSE,150,0.0,0.0,98,0.00,,,0.00,Wunderground v.1.15,2013-06-05 08:10:00,
2013-06-05 04:20:00,71.2,70.6,29.95,SSE,150,0.0,0.0,98,0.00,,,0.00,Wunderground v.1.15,2013-06-05 08:20:00,
2013-06-05 04:25:00,71.2,70.6,29.96,SSE,150,0.0,0.0,98,0.00,,,0.00,Wunderground v.1.15,2013-06-05 08:25:00,
2013-06-05 04:35:00,71.2,70.6,29.95,SSE,150,0.0,0.0,98,0.00,,,0.00,Wunderground v.1.15,2013-06-05 08:35:00,
2013-06-05 04:45:00,71.2,70.6,29.95,SSE,150,0.0,0.0,98,0.00,,,0.00,Wunderground v.1.15,2013-06-05 08:45:00,
2013-06-05 04:50:00,71.2,70.6,29.96,SSE,150,0.0,0.0,98,0.00,,,0.00,Wunderground v.1.15,2013-06-05 08:50:00,
2013-06-05 04:55:00,71.1,70.5,29.95,SSE,150,0.0,0.0,98,0.00,,,0.00,Wunderground v.1.15,2013-06-05 08:55:00,
2013-06-05 05:00:00,71.1,70.5,29.95,SSE,150,0.0,0.0,98,0.00,,,0.00,Wunderground v.1.15,2013-06-05 09:00:00,
2013-06-05 05:10:00,71.1,70.5,29.95,SSE,150,0.0,0.0,98,0.00,,,0.00,Wunderground v.1.15,2013-06-05 09:10:00,
2013-06-05 05:20:00,71.0,70.4,29.95,SSE,150,0.0,0.0,98,0.00,,,0.00,Wunderground v.1.15,2013-06-05 09:20:00,
2013-06-05 05:25:00,71.1,70.5,29.95,SSE,150,0.0,0.0,98,0.00,,,0.00,Wunderground v.1.15,2013-06-05 09:25:00,
2013-06-05 05:35:00,71.2,70.6,29.95,SSE,150,0.0,0.0,98,0.00,,,0.00,Wunderground v.1.15,2013-06-05 09:35:00,
2013-06-05 05:45:00,71.4,70.8,29.95,SSE,150,0.0,0.0,98,0.00,,,0.00,Wunderground v.1.15,2013-06-05 09:45:00,
2013-06-05 05:50:00,71.4,70.8,29.96,SSE,150,0.0,0.0,98,0.00,,,0.00,Wunderground v.1.15,2013-06-05 09:50:00,
2013-06-05 06:00:00,71.5,70.9,29.96,SSE,150,0.0,0.0,98,0.00,,,0.00,Wunderground v.1.15,2013-06-05 10:00:00,
2013-06-05 06:05:00,71.6,71.0,29.96,SSE,150,0.0,0.0,98,0.00,,,0.00,Wunderground v.1.15,2013-06-05 10:05:00,
2013-06-05 06:10:00,71.6,71.0,29.96,SSE,150,0.0,0.0,98,0.00,,,0.00,Wunderground v.1.15,2013-06-05 10:10:00,
2013-06-05 06:20:00,71.7,71.1,29.96,SSE,150,0.0,0.0,98,0.00,,,0.00,Wunderground v.1.15,2013-06-05 10:20:00,
2013-06-05 06:25:00,71.7,71.1,29.96,SSE,150,0.0,0.0,98,0.00,,,0.00,Wunderground v.1.15,2013-06-05 10:25:00,
2013-06-05 06:35:00,71.8,71.2,29.97,SSE,150,0.0,0.0,98,0.00,,,0.00,Wunderground v.1.15,2013-06-05 10:35:00,
2013-06-05 06:40:00,71.8,71.2,29.97,SSE,150,0.0,0.0,98,0.00,,,0.00,Wunderground v.1.15,2013-06-05 10:40:00,
2013-06-05 06:50:00,71.8,71.2,29.97,SSE,150,0.0,0.0,98,0.00,,,0.00,Wunderground v.1.15,2013-06-05 10:50:00,
2013-06-05 06:55:00,71.9,71.3,29.97,SSE,150,0.0,0.0,98,0.00,,,0.00,Wunderground v.1.15,2013-06-05 10:55:00,
2013-06-05 07:05:00,71.9,71.3,29.98,SSE,150,0.0,0.0,98,0.00,,,0.00,Wunderground v.1.15,2013-06-05 11:05:00,
2013-06-05 07:10:00,71.9,71.3,29.98,SSE,150,0.0,0.0,98,0.00,,,0.00,Wunderground v.1.15,2013-06-05 11:10:00,
2013-06-05 07:15:00,71.8,71.2,29.98,SSE,150,0.0,0.0,98,0.00,,,0.00,Wunderground v.1.15,2013-06-05 11:15:00,
2013-06-05 07:25:00,71.8,71.2,29.98,SSE,150,0.0,0.0,98,0.00,,,0.00,Wunderground v.1.15,2013-06-05 11:25:00,
2013-06-05 07:30:00,71.9,71.3,29.98,North,5,0.0,0.0,98,0.00,,,0.00,Wunderground v.1.15,2013-06-05 11:30:00,
2013-06-05 07:40:00,72.1,71.5,29.98,North,5,0.0,0.0,98,0.00,,,0.00,Wunderground v.1.15,2013-06-05 11:40:00,
2013-06-05 07:45:00,72.1,71.5,29.98,North,5,0.0,0.0,98,0.00,,,0.00,Wunderground v.1.15,2013-06-05 11:45:00,
2013-06-05 07:55:00,72.1,71.5,29.98,NNE,26,0.0,1.0,98,0.00,,,0.00,Wunderground v.1.15,2013-06-05 11:55:00,
2013-06-05 08:00:00,72.0,71.4,29.98,NNE,26,0.0,0.0,98,0.00,,,0.00,Wunderground v.1.15,2013-06-05 12:00:00,
2013-06-05 08:10:00,72.1,71.5,29.98,NNE,26,0.0,0.0,98,0.00,,,0.00,Wunderground v.1.15,2013-06-05 12:10:00,
2013-06-05 08:15:00,72.1,71.5,29.99,NNE,26,0.0,0.0,98,0.00,,,0.00,Wunderground v.1.15,2013-06-05 12:15:00,
2013-06-05 08:25:00,72.2,71.6,29.99,ENE,67,0.0,0.0,98,0.00,,,0.00,Wunderground v.1.15,2013-06-05 12:25:00,
2013-06-05 08:30:00,72.3,71.7,29.99,ENE,68,0.0,0.0,98,0.00,,,0.00,Wunderground v.1.15,2013-06-05 12:30:00,
2013-06-05 08:45:00,72.6,72.0,29.99,ENE,63,0.0,0.0,98,0.00,,,0.00,Wunderground v.1.15,2013-06-05 12:45:00,
2013-06-05 08:50:00,72.8,72.2,29.99,ENE,63,0.0,0.0,98,0.00,,,0.00,Wunderground v.1.15,2013-06-05 12:50:00,
2013-06-05 09:00:00,73.0,72.4,29.99,ENE,59,0.0,0.0,98,0.00,,,0.00,Wunderground v.1.15,2013-06-05 13:00:00,
2013-06-05 09:05:00,73.1,72.5,29.99,ENE,65,0.0,0.0,98,0.00,,,0.00,Wunderground v.1.15,2013-06-05 13:05:00,
2013-06-05 09:15:00,73.1,72.5,30.00,East,81,0.0,0.0,98,0.00,,,0.00,Wunderground v.1.15,2013-06-05 13:15:00,
2013-06-05 09:20:00,73.2,72.6,30.00,SE,134,0.0,0.0,98,0.00,,,0.00,Wunderground v.1.15,2013-06-05 13:20:00,
2013-06-05 09:30:00,73.6,73.0,30.00,ENE,78,0.0,0.0,98,0.00,,,0.00,Wunderground v.1.15,2013-06-05 13:30:00,
2013-06-05 09:35:00,73.8,73.2,30.00,ESE,119,1.0,4.0,98,0.00,,,0.00,Wunderground v.1.15,2013-06-05 13:35:00,
2013-06-05 09:40:00,74.0,73.4,30.00,SE,143,1.0,1.0,98,0.00,,,0.00,Wunderground v.1.15,2013-06-05 13:40:00,
2013-06-05 09:50:00,74.6,73.7,30.00,SE,129,1.0,1.0,97,0.00,,,0.00,Wunderground v.1.15,2013-06-05 13:50:00,
2013-06-05 09:55:00,74.9,73.7,30.00,ESE,108,1.0,1.0,96,0.00,,,0.00,Wunderground v.1.15,2013-06-05 13:55:00,
2013-06-05 10:05:00,75.7,73.8,30.00,East,88,1.0,1.0,94,0.00,,,0.00,Wunderground v.1.15,2013-06-05 14:05:00,
2013-06-05 10:15:00,76.6,74.1,30.00,ENE,63,1.0,1.0,92,0.00,,,0.00,Wunderground v.1.15,2013-06-05 14:15:00,
2013-06-05 10:20:00,77.2,74.4,30.00,ESE,103,1.0,2.0,91,0.00,,,0.00,Wunderground v.1.15,2013-06-05 14:20:00,
2013-06-05 10:30:00,77.8,74.6,30.00,NE,53,1.0,1.0,90,0.00,,,0.00,Wunderground v.1.15,2013-06-05 14:30:00,
2013-06-05 10:35:00,78.0,74.8,30.00,ENE,72,0.0,1.0,90,0.00,,,0.00,Wunderground v.1.15,2013-06-05 14:35:00,
2013-06-05 10:40:00,78.1,74.9,30.00,ENE,67,0.0,1.0,90,0.00,,,0.00,Wunderground v.1.15,2013-06-05 14:40:00,
2013-06-05 10:45:00,78.2,75.0,30.00,East,94,1.0,1.0,90,0.00,,,0.00,Wunderground v.1.15,2013-06-05 14:45:00,
2013-06-05 10:55:00,78.4,75.2,30.01,SE,146,1.0,1.0,90,0.00,,,0.00,Wunderground v.1.15,2013-06-05 14:55:00,
2013-06-05 11:05:00,78.7,75.2,30.01,SE,131,1.0,1.0,89,0.00,,,0.00,Wunderground v.1.15,2013-06-05 15:05:00,
2013-06-05 11:10:00,79.0,75.8,30.01,NE,42,1.0,1.0,90,0.00,,,0.00,Wunderground v.1.15,2013-06-05 15:10:00,
2013-06-05 11:15:00,79.4,75.5,30.01,SSE,154,0.0,1.0,88,0.00,,,0.00,Wunderground v.1.15,2013-06-05 15:15:00,
2013-06-05 11:25:00,79.9,75.7,30.01,NNE,15,1.0,3.0,87,0.00,,,0.00,Wunderground v.1.15,2013-06-05 15:25:00,
2013-06-05 11:35:00,80.3,76.1,30.01,SE,133,1.0,1.0,87,0.00,,,0.00,Wunderground v.1.15,2013-06-05 15:35:00,
2013-06-05 11:40:00,80.5,75.9,30.01,SE,144,1.0,1.0,86,0.00,,,0.00,Wunderground v.1.15,2013-06-05 15:40:00,
2013-06-05 11:45:00,80.7,75.8,30.01,South,177,2.0,3.0,85,0.00,,,0.00,Wunderground v.1.15,2013-06-05 15:45:00,
2013-06-05 11:55:00,81.3,76.4,30.00,South,173,1.0,1.0,85,0.00,,,0.00,Wunderground v.1.15,2013-06-05 15:55:00,
2013-06-05 12:00:00,81.7,76.0,30.01,East,101,2.0,2.0,83,0.00,,,0.00,Wunderground v.1.15,2013-06-05 16:00:00,
2013-06-05 12:10:00,82.1,76.1,30.00,East,82,2.0,2.0,82,0.00,,,0.00,Wunderground v.1.15,2013-06-05 16:10:00,
2013-06-05 12:15:00,82.0,76.0,30.00,SSW,213,1.0,2.0,82,0.00,,,0.00,Wunderground v.1.15,2013-06-05 16:15:00,
2013-06-05 12:25:00,82.3,76.3,29.99,SE,127,1.0,2.0,82,0.00,,,0.00,Wunderground v.1.15,2013-06-05 16:25:00,
2013-06-05 12:30:00,82.6,76.2,29.99,WSW,238,1.0,1.0,81,0.00,,,0.00,Wunderground v.1.15,2013-06-05 16:30:00,
2013-06-05 12:40:00,80.6,72.7,30.00,SW,222,4.0,4.0,77,4.80,,,0.11,Wunderground v.1.15,2013-06-05 16:40:00,
2013-06-05 12:45:00,76.6,71.0,30.00,North,355,3.0,4.0,83,0.21,,,0.18,Wunderground v.1.15,2013-06-05 16:45:00,
2013-06-05 12:55:00,74.0,71.2,29.98,North,355,1.0,1.0,91,0.05,,,0.18,Wunderground v.1.15,2013-06-05 16:55:00,
2013-06-05 13:00:00,73.8,71.0,29.98,North,360,0.0,0.0,91,0.00,,,0.18,Wunderground v.1.15,2013-06-05 17:00:00,
2013-06-05 13:10:00,74.8,73.3,29.98,East,92,0.0,0.0,95,0.00,,,0.18,Wunderground v.1.15,2013-06-05 17:10:00,
2013-06-05 13:20:00,76.0,74.1,29.98,SE,145,0.0,1.0,94,0.00,,,0.18,Wunderground v.1.15,2013-06-05 17:20:00,
2013-06-05 13:25:00,76.7,73.9,29.98,East,85,1.0,2.0,91,0.00,,,0.18,Wunderground v.1.15,2013-06-05 17:25:00,
2013-06-05 13:35:00,78.4,75.2,29.98,WSW,244,1.0,1.0,90,0.00,,,0.18,Wunderground v.1.15,2013-06-05 17:35:00,
2013-06-05 13:40:00,79.4,74.8,29.98,East,98,2.0,2.0,86,0.00,,,0.18,Wunderground v.1.15,2013-06-05 17:40:00,
2013-06-05 13:50:00,80.7,74.3,29.97,SW,236,2.0,2.0,81,0.00,,,0.18,Wunderground v.1.15,2013-06-05 17:50:00,
2013-06-05 13:55:00,81.4,75.4,29.96,East,79,1.0,2.0,82,0.00,,,0.18,Wunderground v.1.15,2013-06-05 17:55:00,
2013-06-05 14:05:00,83.4,75.4,29.96,South,178,2.0,2.0,77,0.00,,,0.18,Wunderground v.1.15,2013-06-05 18:05:00,
2013-06-05 14:15:00,84.0,74.8,29.95,East,88,2.0,3.0,74,0.00,,,0.18,Wunderground v.1.15,2013-06-05 18:15:00,
2013-06-05 14:20:00,84.8,75.6,29.95,SE,146,1.0,4.0,74,0.00,,,0.18,Wunderground v.1.15,2013-06-05 18:20:00,
2013-06-05 14:25:00,85.7,74.8,29.95,WSW,244,2.0,4.0,70,0.00,,,0.18,Wunderground v.1.15,2013-06-05 18:25:00,
2013-06-05 14:35:00,87.1,73.0,29.94,South,191,2.0,4.0,63,0.00,,,0.18,Wunderground v.1.15,2013-06-05 18:35:00,
2013-06-05 14:40:00,87.3,74.1,29.94,SSE,159,2.0,2.0,65,0.00,,,0.18,Wunderground v.1.15,2013-06-05 18:40:00,
2013-06-05 14:50:00,88.3,72.2,29.93,East,80,1.0,2.0,59,0.00,,,0.18,Wunderground v.1.15,2013-06-05 18:50:00,
2013-06-05 14:55:00,88.2,73.5,29.93,SE,133,1.0,2.0,62,0.00,,,0.18,Wunderground v.1.15,2013-06-05 18:55:00,
2013-06-05 15:05:00,88.0,72.9,29.93,South,171,1.0,5.0,61,0.00,,,0.18,Wunderground v.1.15,2013-06-05 19:05:00,
2013-06-05 15:10:00,87.4,72.8,29.93,East,96,1.0,1.0,62,0.00,,,0.18,Wunderground v.1.15,2013-06-05 19:10:00,
2013-06-05 15:15:00,86.8,74.1,29.94,SE,137,2.0,2.0,66,0.00,,,0.18,Wunderground v.1.15,2013-06-05 19:15:00,
2013-06-05 15:25:00,86.3,74.0,29.94,SE,136,1.0,1.0,67,0.00,,,0.18,Wunderground v.1.15,2013-06-05 19:25:00,
2013-06-05 15:30:00,85.8,72.2,29.94,ESE,123,2.0,2.0,64,0.00,,,0.18,Wunderground v.1.15,2013-06-05 19:30:00,
2013-06-05 15:40:00,85.2,69.7,29.94,SE,144,3.0,4.0,60,0.00,,,0.18,Wunderground v.1.15,2013-06-05 19:40:00,
2013-06-05 15:45:00,85.0,70.0,29.94,SSE,147,2.0,4.0,61,0.00,,,0.18,Wunderground v.1.15,2013-06-05 19:45:00,
2013-06-05 15:55:00,84.4,70.9,29.94,SE,142,2.0,5.0,64,0.00,,,0.18,Wunderground v.1.15,2013-06-05 19:55:00,
2013-06-05 16:00:00,84.3,71.2,29.95,SSE,165,1.0,1.0,65,0.00,,,0.18,Wunderground v.1.15,2013-06-05 20:00:00,
2013-06-05 16:10:00,83.7,71.6,29.95,SSE,151,2.0,4.0,67,0.00,,,0.18,Wunderground v.1.15,2013-06-05 20:10:00,
2013-06-05 16:15:00,83.3,72.1,29.94,East,92,2.0,4.0,69,0.00,,,0.18,Wunderground v.1.15,2013-06-05 20:15:00,
2013-06-05 16:20:00,83.2,72.0,29.94,ESE,111,2.0,2.0,69,0.00,,,0.18,Wunderground v.1.15,2013-06-05 20:20:00,
2013-06-05 16:30:00,82.9,72.5,29.94,SE,142,2.0,5.0,71,0.00,,,0.18,Wunderground v.1.15,2013-06-05 20:30:00,
2013-06-05 16:35:00,82.8,72.8,29.94,NE,34,2.0,5.0,72,0.00,,,0.18,Wunderground v.1.15,2013-06-05 20:35:00,
2013-06-05 16:45:00,82.3,73.2,29.94,ENE,71,2.0,7.0,74,0.00,,,0.18,Wunderground v.1.15,2013-06-05 20:45:00,
2013-06-05 16:50:00,82.0,73.7,29.93,ESE,111,2.0,2.0,76,0.00,,,0.18,Wunderground v.1.15,2013-06-05 20:50:00,
2013-06-05 16:55:00,81.8,73.5,29.93,East,82,2.0,2.0,76,0.00,,,0.18,Wunderground v.1.15,2013-06-05 20:55:00,
2013-06-05 17:05:00,81.1,72.8,29.94,East,92,1.0,3.0,76,0.00,,,0.18,Wunderground v.1.15,2013-06-05 21:05:00,
2013-06-05 17:15:00,80.6,73.1,29.94,NE,49,1.0,1.0,78,0.00,,,0.18,Wunderground v.1.15,2013-06-05 21:15:00,
2013-06-05 17:20:00,80.3,72.8,29.94,SSE,150,2.0,2.0,78,0.00,,,0.19,Wunderground v.1.15,2013-06-05 21:20:00,
2013-06-05 17:30:00,80.0,73.3,29.94,SE,138,1.0,1.0,80,0.00,,,0.19,Wunderground v.1.15,2013-06-05 21:30:00,
2013-06-05 17:35:00,79.8,73.1,29.94,East,86,1.0,1.0,80,0.00,,,0.19,Wunderground v.1.15,2013-06-05 21:35:00,
2013-06-05 17:45:00,78.5,71.4,29.94,WSW,241,3.0,3.0,79,0.00,,,0.19,Wunderground v.1.15,2013-06-05 21:45:00,
2013-06-05 17:50:00,77.5,70.8,29.94,SE,140,3.0,5.0,80,0.00,,,0.19,Wunderground v.1.15,2013-06-05 21:50:00,
2013-06-05 17:55:00,76.5,70.6,29.94,NNW,336,3.0,5.0,82,0.00,,,0.19,Wunderground v.1.15,2013-06-05 21:55:00,
2013-06-05 18:05:00,75.5,70.7,29.94,SSE,157,3.0,3.0,85,0.00,,,0.19,Wunderground v.1.15,2013-06-05 22:05:00,
2013-06-05 18:15:00,75.2,70.4,29.94,ENE,71,2.0,4.0,85,0.00,,,0.19,Wunderground v.1.15,2013-06-05 22:15:00,
2013-06-05 18:20:00,75.2,70.7,29.93,SE,139,2.0,2.0,86,0.00,,,0.19,Wunderground v.1.15,2013-06-05 22:20:00,
2013-06-05 18:30:00,74.9,70.8,29.93,ENE,72,2.0,2.0,87,0.00,,,0.19,Wunderground v.1.15,2013-06-05 22:30:00,
2013-06-05 18:40:00,74.6,70.8,29.93,SE,130,1.0,1.0,88,0.00,,,0.19,Wunderground v.1.15,2013-06-05 22:40:00,
2013-06-05 18:45:00,74.6,70.8,29.93,NE,55,1.0,2.0,88,0.00,,,0.19,Wunderground v.1.15,2013-06-05 22:45:00,
2013-06-05 18:55:00,74.7,70.9,29.93,ENE,62,1.0,2.0,88,0.00,,,0.19,Wunderground v.1.15,2013-06-05 22:55:00,
2013-06-05 19:00:00,74.7,70.9,29.93,ESE,115,1.0,1.0,88,0.00,,,0.19,Wunderground v.1.15,2013-06-05 23:00:00,
2013-06-05 19:10:00,74.6,71.1,29.93,ENE,63,2.0,4.0,89,0.00,,,0.19,Wunderground v.1.15,2013-06-05 23:10:00,
2013-06-05 19:20:00,74.2,71.1,29.92,ESE,123,1.0,2.0,90,0.00,,,0.19,Wunderground v.1.15,2013-06-05 23:20:00,
2013-06-05 19:25:00,74.1,71.3,29.92,SE,139,1.0,2.0,91,0.00,,,0.19,Wunderground v.1.15,2013-06-05 23:25:00,
2013-06-05 19:35:00,73.9,71.4,29.92,East,98,1.0,3.0,92,0.00,,,0.19,Wunderground v.1.15,2013-06-05 23:35:00,
2013-06-05 19:40:00,73.9,71.4,29.92,East,83,1.0,1.0,92,0.00,,,0.19,Wunderground v.1.15,2013-06-05 23:40:00,
2013-06-05 19:50:00,73.8,71.3,29.92,NE,44,0.0,0.0,92,0.00,,,0.19,Wunderground v.1.15,2013-06-05 23:50:00,
2013-06-05 20:00:00,73.7,71.2,29.92,NE,51,1.0,1.0,92,0.00,,,0.19,Wunderground v.1.15,2013-06-06 00:00:00,
2013-06-05 20:05:00,73.8,71.3,29.92,NE,39,1.0,1.0,92,0.00,,,0.19,Wunderground v.1.15,2013-06-06 00:05:00,
2013-06-05 20:15:00,73.8,71.3,29.92,NNE,32,0.0,1.0,92,0.00,,,0.19,Wunderground v.1.15,2013-06-06 00:15:00,
2013-06-05 20:25:00,73.8,71.3,29.92,NE,46,0.0,1.0,92,0.00,,,0.19,Wunderground v.1.15,2013-06-06 00:25:00,
2013-06-05 20:30:00,73.8,71.3,29.92,East,80,0.0,0.0,92,0.00,,,0.19,Wunderground v.1.15,2013-06-06 00:30:00,
2013-06-05 20:40:00,73.8,71.3,29.92,East,100,0.0,0.0,92,0.00,,,0.19,Wunderground v.1.15,2013-06-06 00:40:00,
2013-06-05 20:45:00,73.9,71.4,29.92,ENE,57,0.0,0.0,92,0.00,,,0.19,Wunderground v.1.15,2013-06-06 00:45:00,
2013-06-05 20:55:00,73.9,71.4,29.92,East,80,0.0,0.0,92,0.00,,,0.19,Wunderground v.1.15,2013-06-06 00:55:00,
2013-06-05 21:00:00,74.0,71.8,29.92,ESE,118,0.0,1.0,93,0.00,,,0.19,Wunderground v.1.15,2013-06-06 01:00:00,
2013-06-05 21:10:00,74.0,71.8,29.92,NE,53,1.0,1.0,93,0.00,,,0.19,Wunderground v.1.15,2013-06-06 01:10:00,
2013-06-05 21:20:00,74.0,71.8,29.92,SSE,148,0.0,0.0,93,0.00,,,0.19,Wunderground v.1.15,2013-06-06 01:20:00,
2013-06-05 21:25:00,74.0,71.8,29.92,SSE,148,0.0,0.0,93,0.00,,,0.19,Wunderground v.1.15,2013-06-06 01:25:00,
2013-06-05 21:30:00,74.0,71.8,29.92,ENE,67,0.0,1.0,93,0.00,,,0.19,Wunderground v.1.15,2013-06-06 01:30:00,
2013-06-05 21:35:00,73.9,71.7,29.92,North,11,0.0,1.0,93,0.00,,,0.19,Wunderground v.1.15,2013-06-06 01:35:00,
2013-06-05 21:45:00,73.9,71.7,29.92,East,80,0.0,0.0,93,0.00,,,0.19,Wunderground v.1.15,2013-06-06 01:45:00,
2013-06-05 21:55:00,73.8,71.6,29.92,NE,55,0.0,0.0,93,0.00,,,0.19,Wunderground v.1.15,2013-06-06 01:55:00,
2013-06-05 22:00:00,73.8,71.6,29.92,East,84,0.0,0.0,93,0.00,,,0.19,Wunderground v.1.15,2013-06-06 02:00:00,
2013-06-05 22:10:00,73.7,71.5,29.92,SE,130,0.0,0.0,93,0.00,,,0.19,Wunderground v.1.15,2013-06-06 02:10:00,
2013-06-05 22:15:00,73.7,71.5,29.92,East,99,0.0,1.0,93,0.00,,,0.19,Wunderground v.1.15,2013-06-06 02:15:00,
2013-06-05 22:25:00,73.7,71.5,29.92,East,84,0.0,0.0,93,0.00,,,0.19,Wunderground v.1.15,2013-06-06 02:25:00,
2013-06-05 22:30:00,73.6,71.4,29.92,ESE,117,0.0,1.0,93,0.00,,,0.19,Wunderground v.1.15,2013-06-06 02:30:00,
2013-06-05 22:40:00,73.5,71.7,29.92,East,86,0.0,0.0,94,0.00,,,0.19,Wunderground v.1.15,2013-06-06 02:40:00,
2013-06-05 22:45:00,73.6,71.8,29.92,East,94,0.0,0.0,94,0.00,,,0.19,Wunderground v.1.15,2013-06-06 02:45:00,
2013-06-05 22:55:00,73.5,71.7,29.92,NE,38,0.0,0.0,94,0.00,,,0.19,Wunderground v.1.15,2013-06-06 02:55:00,
2013-06-05 23:00:00,73.5,71.7,29.92,East,80,0.0,0.0,94,0.00,,,0.19,Wunderground v.1.15,2013-06-06 03:00:00,
2013-06-05 23:10:00,73.5,71.7,29.91,NE,37,0.0,0.0,94,0.00,,,0.19,Wunderground v.1.15,2013-06-06 03:10:00,
2013-06-05 23:20:00,73.7,72.2,29.91,East,98,0.0,0.0,95,0.00,,,0.19,Wunderground v.1.15,2013-06-06 03:20:00,
2013-06-05 23:25:00,73.7,72.2,29.91,NNE,28,0.0,0.0,95,0.00,,,0.19,Wunderground v.1.15,2013-06-06 03:25:00,
2013-06-05 23:30:00,73.7,72.2,29.91,NE,36,0.0,0.0,95,0.00,,,0.19,Wunderground v.1.15,2013-06-06 03:30:00,
2013-06-05 23:40:00,73.8,72.3,29.91,ENE,69,0.0,1.0,95,0.00,,,0.19,Wunderground v.1.15,2013-06-06 03:40:00,
2013-06-05 23:45:00,73.9,72.4,29.91,ESE,123,0.0,1.0,95,0.00,,,0.19,Wunderground v.1.15,2013-06-06 03:45:00,
2013-06-05 23:55:00,73.9,72.4,29.91,ENE,74,0.0,0.0,95,0.00,,,0.19,Wunderground v.1.15,2013-06-06 03:55:00,